createdAt,value
2023-10-14T00:02:09.981Z,99879.06
2023-10-14T00:04:37.697Z,99878.28
2023-10-14T00:07:09.922Z,99879.25
2023-10-14T00:09:50.758Z,99881.94
2023-10-14T00:12:18.617Z,99889.03
2023-10-14T00:14:46.018Z,99903.19
2023-10-14T00:17:18.836Z,99897.06
2023-10-14T00:19:50.948Z,99906.88
2023-10-14T00:22:21.849Z,99909.69
2023-10-14T00:24:53.788Z,99923.94
2023-10-14T00:27:22.937Z,99925.78
2023-10-14T00:29:51.950Z,99927.66
2023-10-14T00:32:19.347Z,99938.28
2023-10-14T00:34:46.777Z,99946.25
2023-10-14T00:37:14.577Z,99945.44
2023-10-14T00:39:41.925Z,99946.38
2023-10-14T00:42:09.804Z,99947.34
2023-10-14T00:44:39.647Z,99960.59
2023-10-14T00:47:09.614Z,99969.53
2023-10-14T00:49:40.263Z,99966.97
2023-10-14T00:52:12.539Z,99970.53
2023-10-14T00:54:47.872Z,99983.03
2023-10-14T00:57:18.895Z,99980.44
2023-10-14T00:59:55.344Z,99981.47
2023-10-14T01:02:32.283Z,99985.09
2023-10-14T01:05:12.257Z,99989.56
2023-10-14T01:07:40.900Z,99998.47
2023-10-14T01:10:13.622Z,99998.50
2023-10-14T01:12:53.835Z,100014.44
2023-10-14T01:15:24.016Z,100014.50
2023-10-14T01:17:55.336Z,100017.28
2023-10-14T01:20:22.920Z,100016.56
2023-10-14T01:23:01.734Z,100019.28
2023-10-14T01:25:33.662Z,100024.69
2023-10-14T01:28:12.481Z,100027.34
2023-10-14T01:30:56.739Z,100034.50
2023-10-14T01:33:27.067Z,100046.00
2023-10-14T01:35:54.492Z,100051.31
2023-10-14T01:38:25.124Z,100054.94
2023-10-14T01:40:53.863Z,100055.88
2023-10-14T01:43:25.687Z,100051.53
2023-10-14T01:45:56.080Z,100056.00
2023-10-14T01:48:26.660Z,100053.44
2023-10-14T01:50:56.336Z,100068.41
2023-10-14T01:53:29.234Z,100059.69
2023-10-14T01:56:02.629Z,100064.09
2023-10-14T01:58:34.661Z,100066.78
2023-10-14T02:01:07.961Z,100078.28
2023-10-14T02:03:43.644Z,100070.41
2023-10-14T02:06:18.566Z,100076.63
2023-10-14T02:08:53.695Z,100076.69
2023-10-14T02:11:22.273Z,100084.59
2023-10-14T02:13:53.373Z,100083.75
2023-10-14T02:16:42.215Z,100089.94
2023-10-14T02:19:22.346Z,100101.34
2023-10-14T02:21:50.953Z,100103.13
2023-10-14T02:24:19.679Z,100108.41
2023-10-14T02:26:50.142Z,100102.28
2023-10-14T02:29:17.454Z,100120.75
2023-10-14T02:31:47.589Z,100124.28
2023-10-14T02:34:16.869Z,100129.56
2023-10-14T02:36:50.773Z,100131.34
2023-10-14T02:39:27.018Z,100140.09
2023-10-14T02:42:09.155Z,100141.88
2023-10-14T02:44:49.235Z,100136.63
2023-10-14T02:47:19.014Z,100148.94
2023-10-14T02:49:57.949Z,100156.91
2023-10-14T02:52:31.324Z,100163.06
2023-10-14T02:55:19.800Z,100178.06
2023-10-14T02:57:49.078Z,100180.69
2023-10-14T03:00:31.252Z,100185.94
2023-10-14T03:03:04.893Z,100195.63
2023-10-14T03:05:37.622Z,100203.53
2023-10-14T03:08:10.500Z,100200.94
2023-10-14T03:10:41.180Z,100203.59
2023-10-14T03:13:13.350Z,100213.31
2023-10-14T03:15:46.038Z,100213.34
2023-10-14T03:18:17.370Z,100214.25
2023-10-14T03:20:57.156Z,100223.88
2023-10-14T03:23:24.773Z,100236.22
2023-10-14T03:26:15.429Z,100240.63
2023-10-14T03:28:46.344Z,100245.91
2023-10-14T03:31:19.044Z,100254.72
2023-10-14T03:33:47.319Z,100257.34
2023-10-14T03:36:18.656Z,100260.00
2023-10-14T03:38:59.866Z,100265.25
2023-10-14T03:41:31.410Z,100273.16
2023-10-14T03:43:58.757Z,100277.56
2023-10-14T03:46:33.703Z,100283.69
2023-10-14T03:49:12.884Z,100289.84
2023-10-14T03:51:41.322Z,100289.84
2023-10-14T03:54:13.641Z,100293.34
2023-10-14T03:56:51.834Z,100308.28
2023-10-14T03:59:24.060Z,100311.78
2023-10-14T04:02:00.430Z,100304.75
2023-10-14T04:04:29.349Z,100318.78
2023-10-14T04:07:00.595Z,100334.59
2023-10-14T04:09:46.458Z,100334.59
2023-10-14T04:12:31.833Z,100338.09
2023-10-14T04:15:20.641Z,100338.09
2023-10-14T04:17:49.568Z,100346.84
2023-10-14T04:20:23.607Z,100352.13
2023-10-14T04:22:55.159Z,100360.88
2023-10-14T04:25:25.715Z,100368.78
2023-10-14T04:27:54.136Z,100360.88
2023-10-14T04:30:33.054Z,100368.78
2023-10-14T04:33:04.533Z,100376.69
2023-10-14T04:35:34.244Z,100370.53
2023-10-14T04:38:18.479Z,100369.66
2023-10-14T04:40:54.537Z,100384.56
2023-10-14T04:43:28.740Z,100380.19
2023-10-14T04:45:56.737Z,100390.72
2023-10-14T04:48:37.269Z,100387.22
2023-10-14T04:51:11.064Z,100392.47
2023-10-14T04:53:44.293Z,100399.47
2023-10-14T04:56:11.863Z,100406.50
2023-10-14T04:58:42.440Z,100416.16
2023-10-14T05:01:11.285Z,100423.19
2023-10-14T05:03:38.842Z,100416.16
2023-10-14T05:06:09.068Z,100427.59
2023-10-14T05:08:56.628Z,100429.34
2023-10-14T05:11:26.853Z,100432.84
2023-10-14T05:14:08.625Z,100424.94
2023-10-14T05:17:04.748Z,100437.19
2023-10-14T05:19:37.160Z,100441.59
2023-10-14T05:22:12.215Z,100448.63
2023-10-14T05:24:49.998Z,100446.88
2023-10-14T05:27:21.146Z,100454.75
2023-10-14T05:29:53.296Z,100467.06
2023-10-14T05:32:32.444Z,100467.03
2023-10-14T05:35:00.646Z,100475.78
2023-10-14T05:37:27.961Z,100475.81
2023-10-14T05:39:58.425Z,100485.44
2023-10-14T05:42:26.190Z,100482.84
2023-10-14T05:45:02.731Z,100496.00
2023-10-14T05:47:30.546Z,100503.00
2023-10-14T05:49:58.035Z,100508.25
2023-10-14T05:52:26.231Z,100517.03
2023-10-14T05:54:53.934Z,100518.78
2023-10-14T05:57:24.036Z,100530.19
2023-10-14T05:59:51.514Z,100536.31
2023-10-14T06:02:18.796Z,100541.56
2023-10-14T06:04:47.125Z,100552.09
2023-10-14T06:07:16.171Z,100555.63
2023-10-14T06:09:49.568Z,100558.22
2023-10-14T06:12:19.710Z,100559.09
2023-10-14T06:14:48.109Z,100559.09
2023-10-14T06:17:16.100Z,100559.97
2023-10-14T06:19:44.396Z,100571.38
2023-10-14T06:22:15.123Z,100575.75
2023-10-14T06:24:45.703Z,100582.75
2023-10-14T06:27:23.231Z,100589.78
2023-10-14T06:29:51.040Z,100594.16
2023-10-14T06:32:20.728Z,100602.06
2023-10-14T06:34:59.620Z,100616.97
2023-10-14T06:37:28.423Z,100614.38
2023-10-14T06:39:58.388Z,100610.84
2023-10-14T06:42:27.991Z,100622.25
2023-10-14T06:44:56.218Z,100628.41
2023-10-14T06:47:23.929Z,100640.69
2023-10-14T06:49:52.377Z,100640.72
2023-10-14T06:52:20.228Z,100654.75
2023-10-14T06:54:48.663Z,100660.06
2023-10-14T06:57:17.517Z,100663.59
2023-10-14T06:59:46.856Z,100669.75
2023-10-14T07:02:14.342Z,100677.69
2023-10-14T07:04:42.462Z,100693.47
2023-10-14T07:07:11.937Z,100695.25
2023-10-14T07:09:40.238Z,100696.19
2023-10-14T07:12:16.968Z,100687.38
2023-10-14T07:14:46.067Z,100704.94
2023-10-14T07:17:24.762Z,100712.00
2023-10-14T07:19:52.122Z,100712.00
2023-10-14T07:22:22.952Z,100707.63
2023-10-14T07:24:52.501Z,100702.38
2023-10-14T07:27:21.726Z,100715.53
2023-10-14T07:29:49.421Z,100707.63
2023-10-14T07:32:16.971Z,100709.38
2023-10-14T07:34:44.513Z,100715.53
2023-10-14T07:37:14.589Z,100717.31
2023-10-14T07:39:42.172Z,100727.84
2023-10-14T07:42:14.839Z,100726.94
2023-10-14T07:44:42.477Z,100742.75
2023-10-14T07:47:12.247Z,100730.47
2023-10-14T07:49:39.979Z,100726.94
2023-10-14T07:52:15.869Z,100726.91
2023-10-14T07:54:44.530Z,100730.41
2023-10-14T07:57:14.993Z,100730.41
2023-10-14T07:59:42.590Z,100744.41
2023-10-14T08:02:11.698Z,100746.13
2023-10-14T08:04:39.234Z,100756.63
2023-10-14T08:07:08.894Z,100760.91
2023-10-14T08:09:40.427Z,100762.56
2023-10-14T08:12:08.047Z,100759.84
2023-10-14T08:14:35.475Z,100765.94
2023-10-14T08:17:02.916Z,100767.56
2023-10-14T08:19:32.758Z,100771.84
2023-10-14T08:22:00.244Z,100780.50
2023-10-14T08:24:27.773Z,100778.56
2023-10-14T08:26:55.211Z,100778.41
2023-10-14T08:29:22.645Z,100790.66
2023-10-14T08:31:55.139Z,100793.19
2023-10-14T08:34:25.795Z,100787.78
2023-10-14T08:36:53.253Z,100779.72
2023-10-14T08:39:25.627Z,100784.91
2023-10-14T08:41:58.962Z,100800.75
2023-10-14T08:44:28.917Z,100805.22
2023-10-14T08:46:56.976Z,100816.94
2023-10-14T08:49:27.796Z,100818.06
2023-10-14T08:51:56.639Z,100823.44
2023-10-14T08:54:26.145Z,100816.44
2023-10-14T08:56:54.469Z,100819.06
2023-10-14T08:59:23.865Z,100826.09
2023-10-14T09:01:57.544Z,100829.59
2023-10-14T09:04:30.620Z,100831.38
2023-10-14T09:07:05.405Z,100830.53
2023-10-14T09:09:36.423Z,100837.59
2023-10-14T09:12:15.006Z,100838.53
2023-10-14T09:14:43.566Z,100849.09
2023-10-14T09:17:12.734Z,100844.69
2023-10-14T09:19:49.310Z,100849.13
2023-10-14T09:22:31.248Z,100850.91
2023-10-14T09:25:01.788Z,100859.66
2023-10-14T09:27:32.344Z,100861.34
2023-10-14T09:30:00.361Z,100862.03
2023-10-14T09:32:28.648Z,100889.38
2023-10-14T09:34:58.270Z,100883.47
2023-10-14T09:37:26.492Z,100896.13
2023-10-14T09:40:04.562Z,100895.47
2023-10-14T09:42:33.807Z,100898.22
2023-10-14T09:45:12.245Z,100908.00
2023-10-14T09:47:47.479Z,100903.59
2023-10-14T09:50:16.244Z,100906.25
2023-10-14T09:52:44.154Z,100902.69
2023-10-14T09:55:15.696Z,100900.00
2023-10-14T09:57:46.729Z,100898.19
2023-10-14T10:00:18.015Z,100895.47
2023-10-14T10:02:51.084Z,100906.81
2023-10-14T10:05:42.778Z,100920.91
2023-10-14T10:08:26.049Z,100923.59
2023-10-14T10:10:54.659Z,100922.72
2023-10-14T10:13:25.013Z,100922.72
2023-10-14T10:15:52.707Z,100931.53
2023-10-14T10:18:24.138Z,100934.16
2023-10-14T10:20:56.754Z,100933.22
2023-10-14T10:23:27.302Z,100927.91
2023-10-14T10:25:54.674Z,100934.97
2023-10-14T10:28:27.411Z,100932.28
2023-10-14T10:30:57.081Z,100937.56
2023-10-14T10:33:46.390Z,100932.25
2023-10-14T10:36:14.776Z,100937.53
2023-10-14T10:38:43.139Z,100930.44
2023-10-14T10:41:28.327Z,100940.13
2023-10-14T10:44:02.667Z,100940.00
2023-10-14T10:46:31.249Z,100951.31
2023-10-14T10:48:59.166Z,100953.84
2023-10-14T10:51:30.767Z,100952.97
2023-10-14T10:54:01.123Z,100965.31
2023-10-14T10:56:30.768Z,100957.41
2023-10-14T10:59:00.271Z,100960.06
2023-10-14T11:01:33.114Z,100961.91
2023-10-14T11:04:09.640Z,100968.16
2023-10-14T11:06:37.441Z,100958.41
2023-10-14T11:09:05.627Z,100959.25
2023-10-14T11:11:35.107Z,100967.22
2023-10-14T11:14:15.470Z,100977.06
2023-10-14T11:16:53.462Z,100978.09
2023-10-14T11:19:21.614Z,100978.16
2023-10-14T11:21:54.001Z,100990.59
2023-10-14T11:24:21.646Z,100982.66
2023-10-14T11:26:50.792Z,100979.97
2023-10-14T11:29:18.395Z,100987.88
2023-10-14T11:31:46.109Z,100992.22
2023-10-14T11:34:14.732Z,100999.22
2023-10-14T11:36:45.354Z,100994.75
2023-10-14T11:39:14.761Z,100998.19
2023-10-14T11:41:42.917Z,101006.16
2023-10-14T11:44:10.204Z,101013.22
2023-10-14T11:46:41.023Z,101009.81
2023-10-14T11:49:12.773Z,101001.91
2023-10-14T11:51:44.572Z,100997.53
2023-10-14T11:54:13.205Z,101006.34
2023-10-14T11:56:41.524Z,101011.63
2023-10-14T11:59:09.953Z,101019.56
2023-10-14T12:01:37.242Z,101015.16
2023-10-14T12:04:05.697Z,101008.13
2023-10-14T12:06:36.134Z,101017.78
2023-10-14T12:09:07.113Z,101023.97
2023-10-14T12:11:43.927Z,101029.22
2023-10-14T12:14:17.869Z,101036.28
2023-10-14T12:16:46.675Z,101030.06
2023-10-14T12:19:16.455Z,101020.41
2023-10-14T12:21:44.561Z,101038.00
2023-10-14T12:24:12.033Z,101038.00
2023-10-14T12:26:46.957Z,101046.81
2023-10-14T12:29:14.385Z,101047.69
2023-10-14T12:31:46.712Z,101056.50
2023-10-14T12:34:15.843Z,101056.50
2023-10-14T12:36:45.475Z,101055.63
2023-10-14T12:39:34.493Z,101069.69
2023-10-14T12:42:05.038Z,101062.63
2023-10-14T12:44:34.381Z,101059.97
2023-10-14T12:47:12.358Z,101075.78
2023-10-14T12:49:40.491Z,101052.78
2023-10-14T12:52:14.749Z,101071.31
2023-10-14T12:54:50.896Z,101077.47
2023-10-14T12:57:19.680Z,101079.22
2023-10-14T12:59:47.950Z,101088.06
2023-10-14T13:02:18.510Z,101078.38
2023-10-14T13:04:46.175Z,101070.44
2023-10-14T13:07:13.786Z,101073.09
2023-10-14T13:09:41.382Z,101066.06
2023-10-14T13:12:19.735Z,101064.31
2023-10-14T13:14:47.144Z,101073.16
2023-10-14T13:17:14.562Z,101082.00
2023-10-14T13:19:42.705Z,101090.88
2023-10-14T13:22:15.113Z,101081.16
2023-10-14T13:24:42.731Z,101090.88
2023-10-14T13:27:10.025Z,101084.66
2023-10-14T13:29:38.527Z,101089.09
2023-10-14T13:32:05.926Z,101089.09
2023-10-14T13:34:34.103Z,101082.03
2023-10-14T13:37:02.113Z,101091.75
2023-10-14T13:39:36.978Z,101092.63
2023-10-14T13:42:07.193Z,101095.31
2023-10-14T13:44:35.758Z,101094.44
2023-10-14T13:47:06.333Z,101100.69
2023-10-14T13:49:35.407Z,101109.56
2023-10-14T13:52:05.480Z,101121.97
2023-10-14T13:54:34.193Z,101117.56
2023-10-14T13:57:02.256Z,101116.69
2023-10-14T13:59:29.581Z,101117.59
2023-10-14T14:01:56.878Z,101134.34
2023-10-14T14:04:24.309Z,101126.41
2023-10-14T14:06:55.947Z,101145.81
2023-10-14T14:09:25.655Z,101145.84
2023-10-14T14:11:57.648Z,101150.25
2023-10-14T14:14:26.259Z,101135.25
2023-10-14T14:16:54.247Z,101146.72
2023-10-14T14:19:22.403Z,101139.66
2023-10-14T14:21:53.025Z,101155.53
2023-10-14T14:24:20.763Z,101159.94
2023-10-14T14:26:47.982Z,101166.13
2023-10-14T14:29:16.036Z,101159.91
2023-10-14T14:31:43.424Z,101173.16
2023-10-14T14:34:10.914Z,101176.69
2023-10-14T14:36:38.330Z,101181.94
2023-10-14T14:39:05.861Z,101194.28
2023-10-14T14:41:33.132Z,101179.31
2023-10-14T14:44:03.310Z,101204.81
2023-10-14T14:46:30.965Z,101194.22
2023-10-14T14:49:00.640Z,101192.44
2023-10-14T14:51:31.148Z,101187.94
2023-10-14T14:53:59.221Z,101180.91
2023-10-14T14:56:26.506Z,101187.03
2023-10-14T14:58:53.755Z,101191.41
2023-10-14T15:01:21.290Z,101201.09
2023-10-14T15:03:48.849Z,101197.53
2023-10-14T15:06:16.203Z,101199.25
2023-10-14T15:08:43.452Z,101200.13
2023-10-14T15:11:13.403Z,101200.91
2023-10-14T15:13:41.905Z,101205.25
2023-10-14T15:16:09.525Z,101206.06
2023-10-14T15:18:37.106Z,101213.00
2023-10-14T15:21:05.264Z,101218.22
2023-10-14T15:23:32.784Z,101217.28
2023-10-14T15:26:00.560Z,101222.56
2023-10-14T15:28:28.110Z,101218.16
2023-10-14T15:30:55.992Z,101208.44
2023-10-14T15:33:23.236Z,101200.50
2023-10-14T15:35:51.094Z,101199.56
2023-10-14T15:38:18.366Z,101231.09
2023-10-14T15:40:49.925Z,101226.53
2023-10-14T15:43:18.283Z,101208.81
2023-10-14T15:45:45.772Z,101208.78
2023-10-14T15:48:13.729Z,101217.47
2023-10-14T15:50:45.237Z,101209.59
2023-10-14T15:53:13.715Z,101201.66
2023-10-14T15:55:43.004Z,101196.41
2023-10-14T15:58:11.431Z,101201.63
2023-10-14T16:00:48.484Z,101195.47
2023-10-14T16:03:21.199Z,101205.13
2023-10-14T16:05:48.561Z,101201.59
2023-10-14T16:08:17.425Z,101218.31
2023-10-14T16:10:49.743Z,101239.41
2023-10-14T16:13:17.294Z,101246.50
2023-10-14T16:15:45.057Z,101229.84
2023-10-14T16:18:13.255Z,101232.50
2023-10-14T16:20:41.605Z,101228.13
2023-10-14T16:23:09.008Z,101231.59
2023-10-14T16:25:36.537Z,101241.19
2023-10-14T16:28:04.622Z,101251.69
2023-10-14T16:30:34.019Z,101255.16
2023-10-14T16:33:03.609Z,101254.28
2023-10-14T16:35:35.441Z,101247.19
2023-10-14T16:38:08.019Z,101264.69
2023-10-14T16:40:36.490Z,101259.31
2023-10-14T16:43:06.259Z,101268.06
2023-10-14T16:45:37.370Z,101261.91
2023-10-14T16:48:09.062Z,101271.53
2023-10-14T16:50:38.387Z,101266.28
2023-10-14T16:53:08.221Z,101275.00
2023-10-14T16:55:37.871Z,101270.63
2023-10-14T16:58:06.941Z,101281.19
2023-10-14T17:00:35.335Z,101277.69
2023-10-14T17:03:07.036Z,101279.50
2023-10-14T17:05:34.947Z,101274.22
2023-10-14T17:08:04.756Z,101282.06
2023-10-14T17:10:33.258Z,101302.16
2023-10-14T17:13:02.782Z,101292.41
2023-10-14T17:15:30.111Z,101297.59
2023-10-14T17:18:03.170Z,101298.41
2023-10-14T17:20:32.489Z,101303.63
2023-10-14T17:23:02.211Z,101302.69
2023-10-14T17:25:33.104Z,101305.25
2023-10-14T17:28:02.017Z,101305.22
2023-10-14T17:30:29.523Z,101315.66
2023-10-14T17:32:58.548Z,101324.38
2023-10-14T17:35:25.942Z,101321.72
2023-10-14T17:37:58.960Z,101327.84
2023-10-14T17:40:31.225Z,101327.84
2023-10-14T17:43:05.722Z,101329.56
2023-10-14T17:45:35.010Z,101327.72
2023-10-14T17:48:07.436Z,101332.03
2023-10-14T17:50:36.810Z,101337.31
2023-10-14T17:53:16.790Z,101334.63
2023-10-14T17:55:46.331Z,101339.84
2023-10-14T17:58:14.576Z,101338.09
2023-10-14T18:00:43.579Z,101345.09
2023-10-14T18:03:17.727Z,101338.97
2023-10-14T18:05:50.227Z,101345.06
2023-10-14T18:08:20.999Z,101342.41
2023-10-14T18:10:50.277Z,101336.19
2023-10-14T18:13:20.411Z,101346.63
2023-10-14T18:15:48.190Z,101349.22
2023-10-14T18:18:15.869Z,101353.53
2023-10-14T18:20:43.358Z,101364.88
2023-10-14T18:23:11.358Z,101364.84
2023-10-14T18:25:44.411Z,101367.53
2023-10-14T18:28:12.921Z,101376.28
2023-10-14T18:30:43.567Z,101397.34
2023-10-14T18:33:12.606Z,101377.19
2023-10-14T18:35:40.821Z,101365.78
2023-10-14T18:38:11.597Z,101360.53
2023-10-14T18:40:40.324Z,101362.25
2023-10-14T18:43:08.797Z,101356.09
2023-10-14T18:45:36.592Z,101374.50
2023-10-14T18:48:09.472Z,101368.41
2023-10-14T18:50:45.040Z,101371.94
2023-10-14T18:53:13.614Z,101365.78
2023-10-14T18:55:50.805Z,101371.13
2023-10-14T18:58:19.349Z,101365.00
2023-10-14T19:00:48.521Z,101378.09
2023-10-14T19:03:17.822Z,101365.78
2023-10-14T19:05:45.983Z,101376.28
2023-10-14T19:08:14.251Z,101372.72
2023-10-14T19:10:48.325Z,101367.38
2023-10-14T19:13:20.821Z,101370.00
2023-10-14T19:15:54.684Z,101376.13
2023-10-14T19:18:23.284Z,101372.59
2023-10-14T19:20:53.633Z,101378.69
2023-10-14T19:23:27.265Z,101383.03
2023-10-14T19:25:57.421Z,101381.31
2023-10-14T19:28:27.554Z,101386.59
2023-10-14T19:31:03.097Z,101396.22
2023-10-14T19:33:31.062Z,101390.94
2023-10-14T19:36:04.564Z,101401.44
2023-10-14T19:38:32.795Z,101394.34
2023-10-14T19:41:01.495Z,101394.25
2023-10-14T19:43:32.117Z,101398.56
2023-10-14T19:46:07.099Z,101391.44
2023-10-14T19:48:35.280Z,101399.31
2023-10-14T19:51:08.381Z,101408.13
2023-10-14T19:53:35.703Z,101425.59
2023-10-14T19:56:03.071Z,101423.91
2023-10-14T19:58:34.940Z,101414.22
2023-10-14T20:01:12.920Z,101408.91
2023-10-14T20:03:40.291Z,101408.00
2023-10-14T20:06:12.489Z,101410.47
2023-10-14T20:08:39.816Z,101419.13
2023-10-14T20:11:09.011Z,101424.31
2023-10-14T20:13:36.697Z,101440.81
2023-10-14T20:16:05.913Z,101439.91
2023-10-14T20:18:36.611Z,101439.03
2023-10-14T20:21:07.368Z,101437.25
2023-10-14T20:23:35.364Z,101453.03
2023-10-14T20:26:04.860Z,101497.63
2023-10-14T20:28:32.150Z,101513.16
2023-10-14T20:31:00.631Z,101501.44
2023-10-14T20:33:29.276Z,101471.28
2023-10-14T20:35:56.997Z,101468.41
2023-10-14T20:38:24.357Z,101452.47
2023-10-14T20:40:51.759Z,101446.19
2023-10-14T20:43:19.701Z,101454.84
2023-10-14T20:45:49.732Z,101446.91
2023-10-14T20:48:17.512Z,101445.09
2023-10-14T20:50:49.548Z,101438.06
2023-10-14T20:53:18.223Z,101448.56
2023-10-14T20:55:47.534Z,101452.00
2023-10-14T20:58:15.594Z,101437.13
2023-10-14T21:00:43.623Z,101461.63
2023-10-14T21:03:13.301Z,101459.91
2023-10-14T21:05:43.607Z,101473.06
2023-10-14T21:08:17.664Z,101467.97
2023-10-14T21:10:50.712Z,101467.22
2023-10-14T21:13:22.071Z,101470.78
2023-10-14T21:16:02.314Z,101473.47
2023-10-14T21:18:30.592Z,101491.91
2023-10-14T21:20:58.331Z,101492.00
2023-10-14T21:23:25.873Z,101487.72
2023-10-14T21:25:57.845Z,101477.28
2023-10-14T21:28:26.030Z,101476.34
2023-10-14T21:30:54.026Z,101473.72
2023-10-14T21:33:22.125Z,101463.22
2023-10-14T21:35:50.664Z,101458.81
2023-10-14T21:38:18.029Z,101463.19
2023-10-14T21:40:49.550Z,101464.06
2023-10-14T21:43:18.863Z,101450.03
2023-10-14T21:45:46.676Z,101455.28
2023-10-14T21:48:14.754Z,101460.47
2023-10-14T21:50:42.037Z,101484.72
2023-10-14T21:53:09.417Z,101467.78
2023-10-14T21:55:38.949Z,101467.69
2023-10-14T21:58:10.250Z,101456.22
2023-10-14T22:00:39.191Z,101457.97
2023-10-14T22:03:09.571Z,101451.94
2023-10-14T22:05:40.107Z,101466.91
2023-10-14T22:08:18.570Z,101474.00
2023-10-14T22:10:51.609Z,101467.97
2023-10-14T22:13:19.085Z,101473.31
2023-10-14T22:15:47.522Z,101470.72
2023-10-14T22:18:14.952Z,101466.31
2023-10-14T22:20:42.324Z,101463.66
2023-10-14T22:23:10.965Z,101458.41
2023-10-14T22:25:46.842Z,101464.44
2023-10-14T22:28:17.014Z,101458.22
2023-10-14T22:30:47.065Z,101458.03
2023-10-14T22:33:14.898Z,101453.56
2023-10-14T22:35:43.272Z,101442.09
2023-10-14T22:38:11.515Z,101448.25
2023-10-14T22:40:43.572Z,101450.84
2023-10-14T22:43:11.840Z,101446.47
2023-10-14T22:45:39.685Z,101442.16
2023-10-14T22:48:08.066Z,101442.06
2023-10-14T22:50:35.831Z,101453.31
2023-10-14T22:53:04.436Z,101464.50
2023-10-14T22:55:35.029Z,101468.75
2023-10-14T22:58:06.158Z,101452.09
2023-10-14T23:00:34.144Z,101449.44
2023-10-14T23:03:10.428Z,101459.78
2023-10-14T23:05:41.043Z,101469.22
2023-10-14T23:08:15.352Z,101470.78
2023-10-14T23:10:45.369Z,101473.38
2023-10-14T23:13:12.957Z,101468.16
2023-10-14T23:15:40.596Z,101479.56
2023-10-14T23:18:08.295Z,101488.38
2023-10-14T23:20:35.690Z,101470.03
2023-10-14T23:23:06.506Z,101482.31
2023-10-14T23:25:36.314Z,101498.06
2023-10-14T23:28:04.612Z,101479.56
2023-10-14T23:30:31.934Z,101469.84
2023-10-14T23:33:01.130Z,101465.31
2023-10-14T23:35:28.856Z,101469.53
2023-10-14T23:38:00.905Z,101467.56
2023-10-14T23:40:32.602Z,101463.03
2023-10-14T23:43:02.501Z,101468.19
2023-10-14T23:45:34.537Z,101470.69
2023-10-14T23:48:05.252Z,101477.59
2023-10-14T23:50:38.048Z,101487.22
2023-10-14T23:53:09.818Z,101500.19
2023-10-14T23:55:37.500Z,101519.41
2023-10-14T23:58:05.017Z,101496.72
